Airports

 


Airport Name Latest METAR Visual Conditions
Cincinnati/Northern Kentucky International (CVG) KCVG 191452Z 17010KT 4SM -RA BR SCT021 BKN036 OVC070 13/12 A3013 RMK AO2 SLP199 P0009 60049 T01330122 58005 MVFR
John Glenn Columbus International (CMH) KCMH 191451Z 15008KT 2 1/2SM RA BR BKN006 OVC013 12/12 A3016 RMK AO2 SFC VIS 3 SLP213 P0016 60043 T01220117 58008 IFR
Yeager (CRW) KCRW 191454Z 00000KT 10SM OVC060 16/11 A3022 RMK AO2 SLP230 T01610106 50009 VFR
James M Cox Dayton International (DAY) KDAY 191456Z 01014KT 7SM -RA OVC005 09/09 A3018 RMK AO2 SLP220 P0005 60024 T00940094 51005 IFR
Evansville Regional (EVV) KEVV 191454Z 35003KT 6SM RA BR OVC003 11/09 A3014 RMK AO2 SLP206 P0005 60053 T01110094 53008 LIFR
Indianapolis International (IND) KIND 191454Z 03009KT 2SM -DZ BR OVC006 08/07 A3018 RMK AO2 DZE11B47RAB11E34 SLP222 P0001 60008 T00780072 52003 $ IFR
Blue Grass (LEX) KLEX 191510Z 16005KT 7SM -RA BKN029 BKN065 OVC090 15/12 A3018 RMK AO2 RAB04 P0000 T01500122 MVFR
Louisville Muhammad Ali International (SDF) KSDF 191456Z 15010KT 5SM -RA BR FEW044 SCT070 OVC100 15/14 A3012 RMK AO2 SLP199 P0037 60044 T01500139 50000 MVFR
Anderson Municipal-Darlington Field (AID) KAID 191335Z AUTO 04008KT 4SM DZ OVC005 07/06 A3021 RMK AO2 T00650059 IFR
Columbus Municipal (BAK) KBAK 191445Z 02008KT 10SM -RA OVC008 08/07 A3016 IFR
Monroe County (BMG) KBMG 191508Z 06007KT 2 1/2SM BR OVC004 10/08 A3015 RMK AO2 T01000078 LIFR
Wright-Patterson Air Force Base (FFO) KFFO 191456Z 36009KT 6SM -RA OVC004 11/10 A3016 RMK AO2A SLP217 P0006 60032 T01070102 50001 LIFR
Godman Army Airfield (FTK) KFTK 191509Z 10005KT 1 1/2SM -RA BR BKN004 OVC018 14/14 A3014 RMK AO2A CIG 004V018 SLP208 LIFR
Himsel Army Airfield (HBE) No weather for this Airport Unknown
Tri-State/Milton J Ferguson Field (HTS) KHTS 191451Z VRB03KT 10SM BKN065 16/11 A3020 RMK AO2 RAB23E34 SLP224 P0000 60000 T01610106 50005 VFR
Terre Haute Regional (HUF) KHUF 191453Z 02008KT 10SM BKN009 OVC025 10/07 A3017 RMK AO2 SLP217 T01000072 58001 IFR
Wilmington Air Park (ILN) KILN 191454Z AUTO 17009KT 4SM RA BR FEW016 BKN029 OVC070 13/12 A3014 RMK AO2 SLP211 P0010 60036 T01280122 58012 MVFR
Rickenbacker International (LCK) KLCK 191455Z AUTO 14008KT 4SM RA SCT006 BKN028 OVC050 12/12 A3016 RMK AO2 T01170117 MVFR
Bowman Field (LOU) KLOU 191453Z 17008KT 4SM -RA BR FEW049 BKN090 OVC110 15/13 A3012 RMK AO2 SLP198 P0039 60060 T01500133 58002 MVFR
Cincinnati Municipal Airport Lunken Field (LUK) KLUK 191453Z 18006KT 5SM -RA BR FEW012 BKN023 OVC041 14/13 A3014 RMK AO2 SLP207 P0008 60046 T01390128 58009 MVFR
Delaware County Regional (MIE) KMIE 191453Z 05012KT 10SM OVC005 08/06 A3018 RMK AO2 SLP218 60001 T00830061 58008 IFR
Ohio State University (OSU) KOSU 191456Z 00000KT 5SM -RA BR OVC004 12/12 A3016 RMK AO2 CIG 003V008 P0000 T01220117 LIFR
Owensboro-Daviess County Regional (OWB) KOWB 191456Z 14005KT 4SM -RA BR OVC020 14/14 A3013 RMK AO2 SLP202 P0006 60018 T01440144 51008 MVFR
Mid-Ohio Valley Regional (PKB) KPKB 191453Z 00000KT 10SM BKN048 OVC060 13/11 A3021 RMK AO2 SLP230 60000 T01330111 50001 VFR
Bolton Field (TZR) KTZR 191445Z 16006KT 4SM -RA OVC004 12/11 A3017 LIFR
Middlesboro-Bell County (1A6) K1A6 191455Z AUTO 17005KT 10SM CLR 17/11 A3026 RMK AO2 T01670106 VFR
Georgetown-Scott County Regional (27K) K27K 191455Z AUTO 00000KT 10SM BKN029 BKN042 OVC050 13/12 A3018 RMK AO1 MVFR
Madisonville Regional (2I0) K2I0 191455Z AUTO 00000KT 3SM RA BKN002 BKN013 OVC049 A3014 RMK AO2 P0039 60050 LIFR
Mason County (3I2) K3I2 191455Z AUTO 00000KT 10SM BKN045 BKN055 14/13 A3023 RMK AO2 T01420131 VFR
Knox County (4I3) K4I3 191455Z AUTO 09004KT 5SM DZ OVC003 11/10 A3018 RMK AO2 P0006 LIFR
Lebanon Springfield-George Hoerter Field (6I2) K6I2 191455Z AUTO 00000KT 7SM -RA FEW024 SCT030 BKN036 17/17 A3017 RMK AO2 VFR
Logan County (6L4) K6L4 191455Z AUTO VRB05KT 10SM OVC055 16/08 A3024 RMK AO2 VFR
Livingston Municipal (8A3) K8A3 191455Z AUTO 21008G13KT 180V240 10SM CLR 20/13 A3018 RMK A01 VFR
Kee Field (I16) KI16 191455Z AUTO 10SM OVC050 17/09 A3030 RMK AO2 T01730092 VFR
Greene County-Lewis A Jackson Regional (I19) KI19 191455Z AUTO 00000KT 1SM RA OVC004 12/12 A3016 RMK AO2 P0005 60036 T01170115 LIFR
Fayette County (I23) KI23 191455Z AUTO 15008KT 5SM OVC005 12/11 A3014 RMK AO1 P0008 IFR
Tucker-Guthrie Memorial (I35) KI35 191455Z AUTO 00000KT 10SM CLR 17/09 A3025 RMK AO2 T01700087 VFR
James A Rhodes (I43) KI43 191515Z AUTO 00000KT 10SM -DZ SCT041 SCT049 BKN075 12/12 A3022 RMK AO2 VFR
Cincinnati West (I67) KI67 191455Z AUTO 00000KT 4SM OVC006 13/12 A3014 RMK AO1 P0001 IFR
Clermont County (I69) KI69 191455Z AUTO 17004KT 7SM RA SCT007 BKN021 OVC036 13/13 A3016 RMK AO2 60001 T01330127 MVFR
Grimes Field (I74) KI74 191455Z AUTO 02006KT 10SM RA OVC007 08/08 A3018 RMK AO2 P0003 IFR
Hancock Co-Ron Lewis Field (KY8) KKY8 191455Z AUTO 15006G11KT 6SM BR OVC025 14/14 A3012 RMK A01 MVFR
Brazil Clay County (0I2) No weather for this Airport Unknown
Cynthiana-Harrison County (0I8) No weather for this Airport Unknown
Holmes County (10G) No weather for this Airport Unknown
Ona Airpark (12V) No weather for this Airport Unknown
Mc Creary County (18I) No weather for this Airport Unknown
Casey Municipal (1H8) No weather for this Airport Unknown
Jamestown Municipal (2A1) No weather for this Airport Unknown
Hendricks County-Gordon Graham Fld (2R2) No weather for this Airport Unknown
Sky King (3I3) No weather for this Airport Unknown
Dayton-Phillipsburg (3I7) No weather for this Airport Unknown
Morrow County (4I9) No weather for this Airport Unknown
Sheridan (5I4) No weather for this Airport Unknown
Indianapolis Downtown (8A4) No weather for this Airport Unknown
Piqua Airport- Hartzell Field (I17) No weather for this Airport Unknown
Jackson County (I18) No weather for this Airport Unknown
Randolph County (I22) No weather for this Airport Unknown
Greensburg Municipalcipal (I34) No weather for this Airport Unknown
Richard Downing (I40) No weather for this Airport Unknown
Clinton Field (I66) No weather for this Airport Unknown
Warren County/John Lane Field (I68) No weather for this Airport Unknown
Perry County (I86) No weather for this Airport Unknown
Breckinridge County (I93) No weather for this Airport Unknown
Hardin County (I95) No weather for this Airport Unknown
Russell County (K24) No weather for this Airport Unknown
Gene Snyder (K62) No weather for this Airport Unknown
Leitchfield-Grayson Co (M20) No weather for this Airport Unknown
Taylor County (AAS) KAAS 191455Z AUTO 19007KT 10SM SCT030 OVC035 18/13 A3021 RMK AO1 VFR
Mount Carmel Municipal (AJG) KAJG 191455Z AUTO 05011G16KT 10SM OVC008 09/08 A3014 RMK AO2 P0007 60024 T00920077 IFR
Alexander Salamon (AMT) No weather for this Airport Unknown
Lima Allen County (AOH) No weather for this Airport Unknown
Neil Armstrong (AXV) KAXV 191455Z AUTO 03008KT 3SM -DZ OVC004 06/06 A3019 RMK AO2 LIFR
Virgil I Grissom Municipal (BFR) No weather for this Airport Unknown
Raleigh County Memorial (BKW) KBKW 191451Z AUTO 13008KT 10SM FEW095 17/07 A3028 RMK AO2 SLP241 T01670067 51009 TSNO VFR
Mercer County (BLF) KBLF 191452Z AUTO 00000KT 10SM FEW050 17/07 A3030 RMK AO2 SLP243 T01670067 51008 VFR
Samuels Field (BRY) KBRY 191515Z AUTO 00000KT 5SM SCT010 BKN013 BKN020 15/14 A3015 RMK AO1 MVFR
Williamsburg-Whitley County (BYL) KBYL 191455Z AUTO 15006KT 10SM SCT034 17/12 A3021 RMK AO1 VFR
Mettel Field (CEV) No weather for this Airport Unknown
Crawfordsville Regional (CFJ) KCFJ 191455Z AUTO 03008KT 10SM BKN008 OVC032 06/06 A3019 RMK AO2 T00600056 IFR
Wendell H Ford (CPF) No weather for this Airport Unknown
Lakefield (CQA) No weather for this Airport Unknown
Carmi Municipal (CUL) No weather for this Airport Unknown
Pickaway County Memorial (CYO) No weather for this Airport Unknown
Daviess County (DCY) KDCY 191455Z AUTO 03007KT 10SM OVC007 10/10 A3014 RMK AO2 60001 T01000098 IFR
Delaware Municipal - Jim Moore Field (DLZ) No weather for this Airport Unknown
Stuart Powell Field (DVK) KDVK 191455Z AUTO 23009KT 10SM SCT037 BKN043 OVC055 17/12 A3019 RMK AO2 VFR
Ashland Regional (DWU) No weather for this Airport Unknown
Appalachian Regional (EBD) No weather for this Airport Unknown
Bellefontaine Regional (EDJ) No weather for this Airport Unknown
Henderson City-County (EHR) KEHR 191456Z AUTO 32004KT 7SM -RA OVC003 12/11 A3013 RMK AO2 RAB11 SLP203 P0001 6//// T01170111 53004 LIFR
Wayne County (EKQ) No weather for this Airport Unknown
Addington Field (EKX) No weather for this Airport Unknown
Pike County (EOP) No weather for this Airport Unknown
Eagle Creek Airpark (EYE) No weather for this Airport Unknown
Capital City (FFT) No weather for this Airport Unknown
Fleming-Mason (FGX) KFGX 191455Z AUTO 12004KT 10SM DZ OVC031 12/12 A3020 RMK AO2 T01210121 VFR
French Lick Municipal (FRH) No weather for this Airport Unknown
Gallia-Meigs Regional (GAS) No weather for this Airport Unknown
Brown County (GEO) No weather for this Airport Unknown
Shelbyville Municipal (GEZ) No weather for this Airport Unknown
Putnam County Regional (GPC) KGPC 191455Z AUTO 7SM SCT007 BKN013 OVC022 08/07 A3017 RMK AO2 T00790070 60001 MVFR
Butler Co Regional-Hogan Field (HAO) No weather for this Airport Unknown
Indy South Greenwood (HFY) KHFY 191455Z AUTO 05008KT 2SM OVC006 07/07 A3017 RMK AO2 T00710069 IFR
Huntingburg (HNB) KHNB 191456Z AUTO 30004KT 10SM OVC003 12/12 A3013 RMK AO2 RAE20 SLP201 P0002 60037 T01220122 51007 LIFR
Highland County (HOC) No weather for this Airport Unknown
Madison Municipal (IMS) No weather for this Airport Unknown
Mount Sterling-Montgomery County (IOB) KIOB 191455Z AUTO 21004KT 10SM BKN040 OVC050 16/12 A3019 RMK AO2 VFR
Julian Carroll (JKL) No weather for this Airport Unknown
Ohio County (JQD) No weather for this Airport Unknown
Clark Regional (JVY) KJVY 180255Z AUTO 14004KT 10SM CLR 09/01 A3017 RMK AO2 T00870006 VFR
Fairfield County (LHQ) KLHQ 191453Z AUTO 16008KT 5SM -RA BR SCT006 BKN080 OVC095 13/11 A3018 RMK AO2 SLP219 P0005 60009 T01280111 58004 MVFR
Lonesome Pine (LNP) No weather for this Airport Unknown
London-Corbin Arpt-Magee Field (LOZ) KLOZ 191453Z AUTO 20009G18KT 10SM FEW120 19/11 A3021 RMK AO2 SLP222 T01890111 50009 VFR
Lawrenceville-Vincennes International (LWV) No weather for this Airport Unknown
Dayton-Wright Brothers (MGY) KMGY 191453Z AUTO 32005KT 5SM -RA BR OVC005 13/12 A3014 RMK AO2 SLP207 P0007 60034 T01280117 56000 IFR
Indianapolis Regional (MQJ) No weather for this Airport Unknown
Union County (MRT) KMRT 191455Z AUTO 02008KT 4SM OVC003 09/08 A3018 RMK AO2 P0001 60021 T00870082 LIFR
Middletown Regional/Hook Field (MWO) KMWO 191455Z AUTO 04007KT 10SM -RA OVC006 12/ A3016 RMK AO2 P0008 T0119//// 60039 IFR
North Vernon (OVO) No weather for this Airport Unknown
Miami University (OXD) KOXD 191455Z AUTO 03006KT 4SM DZ OVC003 10/10 A3014 RMK AO2 P0001 60023 T00970097 LIFR
Pike County-Hatcher Field (PBX) KPBX 191455Z AUTO 15003KT 10SM SCT060 OVC075 17/09 A3023 RMK AO2 T01660093 VFR
Greater Portsmouth Regional (PMH) KPMH 191359Z AUTO 00000KT 10SM RA OVC044 A3022 RMK AO2 P0001 VFR
Edgar County (PRG) No weather for this Airport Unknown
Central Kentucky Regional (RGA) KRGA 191455Z AUTO 19010KT 10SM SCT050 BKN095 17/12 A3017 RMK AO2 VFR
Richmond Municipal (RID) KRID 191455Z AUTO 06013G16KT 4SM -RA BKN006 OVC010 07/07 A3016 RMK AO2 P0002 IFR
Crawford Co (RSV) KRSV 191455Z AUTO 05007KT 4SM BR OVC005 08/08 RMK AO2 T00810081 IFR
Ross County (RZT) KRZT 191455Z AUTO 16006KT 2 1/2SM OVC002 11/11 A3017 RMK AO2 P0007 PWINO LIFR
Sidney Municipal (SCA) No weather for this Airport Unknown
Scott Municipal (SCX) KSCX 191455Z AUTO 20011G18KT 10SM CLR 18/12 A3022 RMK A01 VFR
Freeman Municipal (SER) No weather for this Airport Unknown
Springfield-Beckley Municipal (SGH) No weather for this Airport Unknown
Sullivan County (SIV) No weather for this Airport Unknown
Big Sandy Regional (SJS) KSJS 191455Z AUTO 18004KT 10SM BKN065 BKN075 OVC085 18/10 A3023 RMK AO2 6//// T01820098 PNO VFR
Lake Cumberland Regional (SME) No weather for this Airport Unknown
Summersville (SXL) No weather for this Airport Unknown
Morehead-Rowan County Clyde A Thomas Regional (SYM) KSYM 191455Z AUTO 00000KT 10SM BKN041 BKN048 OVC085 16/11 A3020 RMK AO2 VFR
Perry County Municipal (TEL) No weather for this Airport Unknown
Sturgis Municipal (TWT) No weather for this Airport Unknown
Indianapolis Executive (TYQ) KTYQ 191455Z AUTO 05007KT 10SM BKN006 OVC026 07/06 A3019 RMK AO2 60001 T00700058 IFR
Indianapolis Metropolitan (UMP) No weather for this Airport Unknown
Ohio University (UNI) KUNI 191455Z AUTO 00000KT 4SM RA SCT036 OVC042 A3022 RMK AO2 P0007 60019 MVFR
Boggs Field (USW) No weather for this Airport Unknown
New Castle Henry County Marlatt Field (UWL) No weather for this Airport Unknown
Madison County (UYF) KUYF 191455Z AUTO 00000KT 5SM -RA OVC004 11/10 A3016 RMK AO2 LIFR
Darke County (VES) KVES 191455Z AUTO 03011KT 3SM -DZ OVC004 06/06 A3018 RMK AO2 P0001 LIFR
Newark-Heath (VTA) KVTA 191454Z AUTO 13005KT 2 1/2SM RA BR BKN005 BKN015 OVC090 13/11 A3016 RMK AO2 SLP214 P0016 60027 T01280111 58009 IFR
Zanesville Municipal (ZZV) KZZV 191453Z AUTO 13006KT 5SM -RA BR BKN004 BKN022 OVC075 12/12 A3019 RMK AO2 RAE02B14 SLP224 6//// T01220117 58002 PNO $ LIFR
Red Stewart Airfield (40I) No weather for this Airport Unknown
Dahio Trotwood (I44) No weather for this Airport Unknown
Mad River Airpark (I54) No weather for this Airport Unknown
Moraine Air Park (I73) No weather for this Airport Unknown
Alexandria (I99) No weather for this Airport Unknown
Fry (0OH8) No weather for this Airport Unknown
Fayette County Memorial Hospital (11OH) No weather for this Airport Unknown
Uk Hospital (37KY) No weather for this Airport Unknown
Andy Barnhart Memorial (3OH0) No weather for this Airport Unknown
Medical Center Albany (45KY) No weather for this Airport Unknown
Westlake Regional Hospital (48KY) No weather for this Airport Unknown
Manchester Memorial Hospital (4KY2) No weather for this Airport Unknown
Bethesda Hospital Helistop (4OH2) No weather for this Airport Unknown
Appalachian Regional Hospital (51KY) No weather for this Airport Unknown
Bedford Medical Center (57IN) No weather for this Airport Unknown
Union Hospital (60II) No weather for this Airport Unknown
Skydive Greene County Inc (7OA7) No weather for this Airport Unknown
Methodist Hospital Of In Inc (81II) No weather for this Airport Unknown
Saint Joseph Hospital (88KY) No weather for this Airport Unknown
Riverside Methodist Hospital (9OI9) No weather for this Airport Unknown
Decatur County Memorial Hospital (IN35) No weather for this Airport Unknown
Reid Hospital (IN68) No weather for this Airport Unknown
Ball Memorial Hospital (IN74) No weather for this Airport Unknown
Iu Health Morgan (IN84) No weather for this Airport Unknown
Grant Medical Center (OH01) No weather for this Airport Unknown
Knox Communicipalty Hospital (OH04) No weather for this Airport Unknown
O'Bleness Memorial Hospital (OH23) No weather for this Airport Unknown
Schaney'S Lair (OH46) No weather for this Airport Unknown
Southern Ohio Regional Medical Center (OH62) No weather for this Airport Unknown
Troy Skypark (OH71) No weather for this Airport Unknown
Nationwide Children'S Hospital (OI95) No weather for this Airport Unknown